Terminal Aerodrome Forecast
Issued by NWS Memphis, TN

Home | Current Version | Previous Version | Text Only | Print | Product List | Glossary On
Versions: 1 2 3 4 5 6 7 8 9 10 11 12 13 14 15 16 17 18 19 20 21 22 23 24
000
FTUS44 KMEG 072328
TAFMKL
TAF
KMKL 072328Z 0800/0824 33004KT P6SM BKN250
     FM080600 36007KT P6SM BKN060
     FM081300 34010KT P6SM SKC
     FM081800 33010KT P6SM OVC250=

USA.gov is the U.S. government's official web portal to all federal, state and local government web resources and services.